createdAt,value
2023-03-15T00:00:43.144Z,4.13
2023-03-15T00:03:12.081Z,3.83
2023-03-15T00:05:43.243Z,3.30
2023-03-15T00:08:12.177Z,3.40
2023-03-15T00:10:41.719Z,3.93
2023-03-15T00:13:10.353Z,3.43
2023-03-15T00:15:46.815Z,4.13
2023-03-15T00:18:15.423Z,3.70
2023-03-15T00:20:43.847Z,3.87
2023-03-15T00:23:12.323Z,5.00
2023-03-15T00:25:40.722Z,5.10
2023-03-15T00:28:09.565Z,6.67
2023-03-15T00:30:39.126Z,5.50
2023-03-15T00:33:07.044Z,6.77
2023-03-15T00:35:39.381Z,7.20
2023-03-15T00:38:07.438Z,4.60
2023-03-15T00:40:35.639Z,5.20
2023-03-15T00:43:04.232Z,5.37
2023-03-15T00:45:32.108Z,7.03
2023-03-15T00:48:01.649Z,6.30
2023-03-15T00:50:29.627Z,6.57
2023-03-15T00:52:57.563Z,7.53
2023-03-15T00:55:27.030Z,5.50
2023-03-15T00:57:54.993Z,4.37
2023-03-15T01:00:25.251Z,6.63
2023-03-15T01:02:53.673Z,5.67
2023-03-15T01:05:26.302Z,6.60
2023-03-15T01:07:54.365Z,7.20
2023-03-15T01:10:22.197Z,5.70
2023-03-15T01:12:50.098Z,6.10
2023-03-15T01:15:18.185Z,4.30
2023-03-15T01:17:46.159Z,7.03
2023-03-15T01:20:17.361Z,4.97
2023-03-15T01:22:46.632Z,4.73
2023-03-15T01:25:16.000Z,4.47
2023-03-15T01:27:45.693Z,3.03
2023-03-15T01:30:14.074Z,3.07
2023-03-15T01:32:41.924Z,3.40
2023-03-15T01:35:10.331Z,6.90
2023-03-15T01:37:38.222Z,3.83
2023-03-15T01:40:14.575Z,4.10
2023-03-15T01:43:13.128Z,6.43
2023-03-15T01:45:58.029Z,3.90
2023-03-15T01:48:30.832Z,3.20
2023-03-15T01:51:00.109Z,4.23
2023-03-15T01:53:31.686Z,3.67
2023-03-15T01:56:02.659Z,4.20
2023-03-15T01:58:41.462Z,3.90
2023-03-15T02:01:10.868Z,3.97
2023-03-15T02:03:48.505Z,3.97
2023-03-15T02:06:20.103Z,5.60
2023-03-15T02:08:57.040Z,4.03
2023-03-15T02:11:28.921Z,2.90
2023-03-15T02:13:58.840Z,2.93
2023-03-15T02:16:27.370Z,4.30
2023-03-15T02:19:00.107Z,3.10
2023-03-15T02:21:39.993Z,2.07
2023-03-15T02:24:20.814Z,3.23
2023-03-15T02:26:55.070Z,3.63
2023-03-15T02:29:26.520Z,3.80
2023-03-15T02:31:54.838Z,3.00
2023-03-15T02:34:26.178Z,3.33
2023-03-15T02:36:56.512Z,3.17
2023-03-15T02:39:25.553Z,3.90
2023-03-15T02:41:56.139Z,3.07
2023-03-15T02:44:30.431Z,4.27
2023-03-15T02:47:02.677Z,3.50
2023-03-15T02:49:33.954Z,3.27
2023-03-15T02:52:01.926Z,2.00
2023-03-15T02:54:29.753Z,2.83
2023-03-15T02:56:57.586Z,2.50
2023-03-15T02:59:26.895Z,1.57
2023-03-15T03:01:54.941Z,4.90
2023-03-15T03:04:23.004Z,5.00
2023-03-15T03:06:50.981Z,3.07
2023-03-15T03:09:22.636Z,4.37
2023-03-15T03:11:50.545Z,3.10
2023-03-15T03:14:19.506Z,2.30
2023-03-15T03:16:48.815Z,3.47
2023-03-15T03:19:19.449Z,4.73
2023-03-15T03:21:47.358Z,4.27
2023-03-15T03:24:16.504Z,3.30
2023-03-15T03:26:46.097Z,3.93
2023-03-15T03:29:16.573Z,3.87
2023-03-15T03:31:46.262Z,2.10
2023-03-15T03:34:15.739Z,4.13
2023-03-15T03:36:44.425Z,2.70
2023-03-15T03:39:15.777Z,5.00
2023-03-15T03:41:45.260Z,3.03
2023-03-15T03:44:14.218Z,3.67
2023-03-15T03:46:43.544Z,5.50
2023-03-15T03:49:14.765Z,3.77
2023-03-15T03:51:42.671Z,1.87
2023-03-15T03:54:10.517Z,5.50
2023-03-15T03:56:39.699Z,4.50
2023-03-15T03:59:07.604Z,4.03
2023-03-15T04:01:58.188Z,3.30
2023-03-15T04:04:27.565Z,2.83
2023-03-15T04:06:55.698Z,2.57
2023-03-15T04:09:28.129Z,4.20
2023-03-15T04:11:56.024Z,7.57
2023-03-15T04:14:25.772Z,2.43
2023-03-15T04:16:54.578Z,4.77
2023-03-15T04:19:24.320Z,2.43
2023-03-15T04:21:54.469Z,4.90
2023-03-15T04:24:34.037Z,5.17
2023-03-15T04:27:14.504Z,4.97
2023-03-15T04:30:05.264Z,2.10
2023-03-15T04:32:46.190Z,2.80
2023-03-15T04:35:30.615Z,3.33
2023-03-15T04:38:18.601Z,2.73
2023-03-15T04:41:02.153Z,6.07
2023-03-15T04:44:02.335Z,4.80
2023-03-15T04:46:59.840Z,4.73
2023-03-15T04:50:00.925Z,4.00
2023-03-15T04:52:49.531Z,4.87
2023-03-15T04:55:24.611Z,4.53
2023-03-15T04:58:18.832Z,6.80
2023-03-15T05:01:19.025Z,5.20
2023-03-15T05:03:57.548Z,5.80
2023-03-15T05:06:51.450Z,4.53
2023-03-15T05:09:28.292Z,5.13
2023-03-15T05:12:18.749Z,5.43
2023-03-15T05:15:08.075Z,3.33
2023-03-15T05:17:59.174Z,5.87
2023-03-15T05:20:43.607Z,3.37
2023-03-15T05:23:32.594Z,4.33
2023-03-15T05:26:19.163Z,5.90
2023-03-15T05:29:08.789Z,11.67
2023-03-15T05:31:52.328Z,5.63
2023-03-15T05:34:32.278Z,4.83
2023-03-15T05:37:32.926Z,4.93
2023-03-15T05:40:24.252Z,5.47
2023-03-15T05:43:03.879Z,4.97
2023-03-15T05:45:51.357Z,6.33
2023-03-15T05:48:38.441Z,6.70
2023-03-15T05:51:27.491Z,10.10
2023-03-15T05:54:33.695Z,4.97
2023-03-15T05:57:19.800Z,4.97
2023-03-15T06:00:26.122Z,5.93
2023-03-15T06:03:02.741Z,10.80
2023-03-15T06:05:47.397Z,4.17
2023-03-15T06:08:20.320Z,7.87
2023-03-15T06:10:51.565Z,6.07
2023-03-15T06:13:19.612Z,8.37
2023-03-15T06:15:48.456Z,3.57
2023-03-15T06:18:19.592Z,6.77
2023-03-15T06:20:50.044Z,6.87
2023-03-15T06:23:19.496Z,4.77
2023-03-15T06:25:48.510Z,5.67
2023-03-15T06:28:17.587Z,5.53
2023-03-15T06:30:51.681Z,7.37
2023-03-15T06:33:25.260Z,4.87
2023-03-15T06:35:56.622Z,5.60
2023-03-15T06:38:24.672Z,5.00
2023-03-15T06:40:52.521Z,4.87
2023-03-15T06:43:20.389Z,5.77
2023-03-15T06:45:48.961Z,6.03
2023-03-15T06:48:18.398Z,5.30
2023-03-15T06:50:48.221Z,6.90
2023-03-15T06:53:17.829Z,5.47
2023-03-15T06:55:47.039Z,4.73
2023-03-15T06:58:15.319Z,4.27
2023-03-15T07:00:44.338Z,6.30
2023-03-15T07:03:14.371Z,4.20
2023-03-15T07:05:42.286Z,8.87
2023-03-15T07:08:11.534Z,9.50
2023-03-15T07:10:39.367Z,5.40
2023-03-15T07:13:07.328Z,6.07
2023-03-15T07:15:37.586Z,5.37
2023-03-15T07:18:05.477Z,6.83
2023-03-15T07:20:34.686Z,7.57
2023-03-15T07:23:03.395Z,6.27
2023-03-15T07:25:37.594Z,6.97
2023-03-15T07:28:10.060Z,7.90
2023-03-15T07:30:37.876Z,9.20
2023-03-15T07:33:05.877Z,4.17
2023-03-15T07:35:33.902Z,8.13
2023-03-15T07:38:04.368Z,4.63
2023-03-15T07:40:33.743Z,11.00
2023-03-15T07:43:01.477Z,6.13
2023-03-15T07:45:29.601Z,5.10
2023-03-15T07:48:00.772Z,3.37
2023-03-15T07:50:28.711Z,8.00
2023-03-15T07:52:56.554Z,4.33
2023-03-15T07:55:25.313Z,7.70
2023-03-15T07:57:54.575Z,8.87
2023-03-15T08:00:23.047Z,4.30
2023-03-15T08:02:50.966Z,7.17
2023-03-15T08:05:19.088Z,3.37
2023-03-15T08:07:47.268Z,3.87
2023-03-15T08:10:18.665Z,6.13
2023-03-15T08:12:46.609Z,7.67
2023-03-15T08:15:16.342Z,4.73
2023-03-15T08:17:44.289Z,8.30
2023-03-15T08:20:17.544Z,5.47
2023-03-15T08:22:45.975Z,6.03
2023-03-15T08:25:19.073Z,3.37
2023-03-15T08:27:47.116Z,5.17
2023-03-15T08:30:17.598Z,2.33
2023-03-15T08:32:47.158Z,4.13
2023-03-15T08:35:17.477Z,3.83
2023-03-15T08:37:46.989Z,4.40
2023-03-15T08:40:15.591Z,4.33
2023-03-15T08:42:43.544Z,6.27
2023-03-15T08:45:12.317Z,4.47
2023-03-15T08:47:41.939Z,4.77
2023-03-15T08:50:14.460Z,3.57
2023-03-15T08:52:43.064Z,5.43
2023-03-15T08:55:14.359Z,3.73
2023-03-15T08:57:43.011Z,4.10
2023-03-15T09:00:18.446Z,4.37
2023-03-15T09:02:49.694Z,4.73
2023-03-15T09:05:18.175Z,3.67
2023-03-15T09:07:46.691Z,4.17
2023-03-15T09:10:16.498Z,4.20
2023-03-15T09:12:44.700Z,3.97
2023-03-15T09:15:12.950Z,7.53
2023-03-15T09:17:41.258Z,2.57
2023-03-15T09:20:15.419Z,3.13
2023-03-15T09:22:44.204Z,7.23
2023-03-15T09:25:12.049Z,2.60
2023-03-15T09:27:40.008Z,3.97
2023-03-15T09:30:08.928Z,2.57
2023-03-15T09:32:37.116Z,2.17
2023-03-15T09:35:06.117Z,3.73
2023-03-15T09:37:36.191Z,5.97
2023-03-15T09:40:04.783Z,3.20
2023-03-15T09:42:43.124Z,3.47
2023-03-15T09:45:19.342Z,5.60
2023-03-15T09:47:57.018Z,4.13
2023-03-15T09:50:30.527Z,4.27
2023-03-15T09:53:05.755Z,4.57
2023-03-15T09:55:33.669Z,4.73
2023-03-15T09:58:04.263Z,4.77
2023-03-15T10:00:38.596Z,3.70
2023-03-15T10:03:09.877Z,3.43
2023-03-15T10:05:43.010Z,3.80
2023-03-15T10:08:17.485Z,3.50
2023-03-15T10:10:51.947Z,2.73
2023-03-15T10:13:30.842Z,4.33
2023-03-15T10:16:12.347Z,3.97
2023-03-15T10:18:57.633Z,4.87
2023-03-15T10:21:36.241Z,6.43
2023-03-15T10:24:06.964Z,4.50
2023-03-15T10:26:39.648Z,5.37
2023-03-15T10:29:14.868Z,5.03
2023-03-15T10:31:46.342Z,6.50
2023-03-15T10:34:16.684Z,2.67
2023-03-15T10:36:50.311Z,3.43
2023-03-15T10:39:19.545Z,2.73
2023-03-15T10:41:49.979Z,3.93
2023-03-15T10:44:21.272Z,2.80
2023-03-15T10:47:05.019Z,2.37
2023-03-15T10:49:42.211Z,1.40
2023-03-15T10:52:28.258Z,2.53
2023-03-15T10:55:03.923Z,2.33
2023-03-15T10:57:39.080Z,2.97
2023-03-15T11:00:23.958Z,2.30
2023-03-15T11:03:01.579Z,4.47
2023-03-15T11:05:33.084Z,1.60
2023-03-15T11:08:02.335Z,4.07
2023-03-15T11:10:35.816Z,2.37
2023-03-15T11:13:21.945Z,3.17
2023-03-15T11:15:57.045Z,2.63
2023-03-15T11:18:30.950Z,2.30
2023-03-15T11:20:59.606Z,3.33
2023-03-15T11:23:30.915Z,4.70
2023-03-15T11:26:00.422Z,4.13
2023-03-15T11:28:31.662Z,3.53
2023-03-15T11:31:01.026Z,3.23
2023-03-15T11:33:38.318Z,3.63
2023-03-15T11:36:12.220Z,2.73
2023-03-15T11:38:44.168Z,1.80
2023-03-15T11:41:23.702Z,3.13
2023-03-15T11:43:59.495Z,3.03
2023-03-15T11:46:33.116Z,3.23
2023-03-15T11:49:07.372Z,2.33
2023-03-15T11:51:37.573Z,3.87
2023-03-15T11:54:12.568Z,1.40
2023-03-15T11:56:54.253Z,2.33
2023-03-15T11:59:27.594Z,3.70
2023-03-15T12:02:00.860Z,3.03
2023-03-15T12:04:45.302Z,3.47
2023-03-15T12:07:34.648Z,1.10
2023-03-15T12:10:22.127Z,1.53
2023-03-15T12:13:18.472Z,3.13
2023-03-15T12:15:48.914Z,2.27
2023-03-15T12:18:23.163Z,3.17
2023-03-15T12:20:58.543Z,3.70
2023-03-15T12:23:38.966Z,1.60
2023-03-15T12:26:10.883Z,2.33
2023-03-15T12:28:45.037Z,3.63
2023-03-15T12:31:15.273Z,3.47
2023-03-15T12:33:49.698Z,2.17
2023-03-15T12:36:30.740Z,2.17
2023-03-15T12:39:04.374Z,2.20
2023-03-15T12:41:39.063Z,2.83
2023-03-15T12:44:38.370Z,2.53
2023-03-15T12:47:07.305Z,4.10
2023-03-15T12:49:38.055Z,6.37
2023-03-15T12:52:14.459Z,3.63
2023-03-15T12:54:46.962Z,4.07
2023-03-15T12:57:22.041Z,2.80
2023-03-15T12:59:55.770Z,8.50
2023-03-15T13:02:42.120Z,3.63
2023-03-15T13:05:20.192Z,4.37
2023-03-15T13:07:58.167Z,3.77
2023-03-15T13:10:41.107Z,2.63
2023-03-15T13:13:38.798Z,4.70
2023-03-15T13:16:18.656Z,2.30
2023-03-15T13:18:55.828Z,6.47
2023-03-15T13:21:29.787Z,3.70
2023-03-15T13:23:59.951Z,4.10
2023-03-15T13:26:40.784Z,5.13
2023-03-15T13:29:17.553Z,2.67
2023-03-15T13:31:47.827Z,1.83
2023-03-15T13:34:20.856Z,2.70
2023-03-15T13:36:50.833Z,4.33
2023-03-15T13:39:23.453Z,1.63
2023-03-15T13:41:57.813Z,2.67
2023-03-15T13:44:27.238Z,3.33
2023-03-15T13:46:57.925Z,3.60
2023-03-15T13:49:30.934Z,2.23
2023-03-15T13:52:00.088Z,2.47
2023-03-15T13:54:30.752Z,3.03
2023-03-15T13:57:03.647Z,1.63
2023-03-15T13:59:36.328Z,3.37
2023-03-15T14:02:07.213Z,4.13
2023-03-15T14:04:38.723Z,2.27
2023-03-15T14:07:22.438Z,2.33
2023-03-15T14:09:50.283Z,2.00
2023-03-15T14:12:23.649Z,2.50
2023-03-15T14:14:53.661Z,2.60
2023-03-15T14:17:27.602Z,2.60
2023-03-15T14:19:57.814Z,3.03
2023-03-15T14:22:26.104Z,2.27
2023-03-15T14:24:54.366Z,2.10
2023-03-15T14:27:24.306Z,2.33
2023-03-15T14:29:55.959Z,2.60
2023-03-15T14:32:31.215Z,2.63
2023-03-15T14:35:05.139Z,2.07
2023-03-15T14:37:38.157Z,3.83
2023-03-15T14:40:21.026Z,1.70
2023-03-15T14:42:50.015Z,1.33
2023-03-15T14:45:19.084Z,1.77
2023-03-15T14:47:57.080Z,1.73
2023-03-15T14:50:27.825Z,4.07
2023-03-15T14:52:57.503Z,1.53
2023-03-15T14:55:30.600Z,2.10
2023-03-15T14:57:58.777Z,1.03
2023-03-15T15:00:27.265Z,1.70
2023-03-15T15:02:58.322Z,1.50
2023-03-15T15:05:32.674Z,1.30
2023-03-15T15:08:13.170Z,1.13
2023-03-15T15:10:44.777Z,3.27
2023-03-15T15:13:18.918Z,2.97
2023-03-15T15:15:55.128Z,2.27
2023-03-15T15:18:26.975Z,2.50
2023-03-15T15:20:59.416Z,0.80
2023-03-15T15:23:29.881Z,1.83
2023-03-15T15:26:19.911Z,2.17
2023-03-15T15:28:57.538Z,1.07
2023-03-15T15:31:27.127Z,1.67
2023-03-15T15:33:57.586Z,2.43
2023-03-15T15:36:28.090Z,3.27
2023-03-15T15:39:01.231Z,2.30
2023-03-15T15:41:31.535Z,2.03
2023-03-15T15:43:59.881Z,1.50
2023-03-15T15:46:28.493Z,4.97
2023-03-15T15:48:58.880Z,2.30
2023-03-15T15:51:29.574Z,1.70
2023-03-15T15:53:59.617Z,1.87
2023-03-15T15:56:33.758Z,2.07
2023-03-15T15:59:03.269Z,3.03
2023-03-15T16:01:31.535Z,1.73
2023-03-15T16:04:02.090Z,2.40
2023-03-15T16:06:30.531Z,1.80
2023-03-15T16:08:58.677Z,2.60
2023-03-15T16:11:26.947Z,3.40
2023-03-15T16:13:55.020Z,3.00
2023-03-15T16:16:23.030Z,2.13
2023-03-15T16:18:51.146Z,1.87
2023-03-15T16:21:27.526Z,1.53
2023-03-15T16:23:59.304Z,2.07
2023-03-15T16:26:27.177Z,2.03
2023-03-15T16:28:55.540Z,2.30
2023-03-15T16:31:23.644Z,2.00
2023-03-15T16:33:51.939Z,2.83
2023-03-15T16:36:23.358Z,2.50
2023-03-15T16:38:51.343Z,1.63
2023-03-15T16:41:19.281Z,2.10
2023-03-15T16:43:50.644Z,2.27
2023-03-15T16:46:18.821Z,2.43
2023-03-15T16:48:46.886Z,2.10
2023-03-15T16:51:16.987Z,4.07
2023-03-15T16:53:46.387Z,1.60
2023-03-15T16:56:15.865Z,3.30
2023-03-15T16:58:45.426Z,1.53
2023-03-15T17:01:18.449Z,2.27
2023-03-15T17:03:47.796Z,1.77
2023-03-15T17:06:21.005Z,2.33
2023-03-15T17:08:53.108Z,2.50
2023-03-15T17:11:21.577Z,1.57
2023-03-15T17:13:50.341Z,1.57
2023-03-15T17:16:22.240Z,4.10
2023-03-15T17:18:51.271Z,3.27
2023-03-15T17:21:24.040Z,3.17
2023-03-15T17:23:54.739Z,2.67
2023-03-15T17:26:43.692Z,1.60
2023-03-15T17:29:15.771Z,2.83
2023-03-15T17:31:45.070Z,2.20
2023-03-15T17:34:15.459Z,2.27
2023-03-15T17:36:51.559Z,4.50
2023-03-15T17:39:23.640Z,9.57
2023-03-15T17:41:52.385Z,8.80
2023-03-15T17:44:21.328Z,9.23
2023-03-15T17:46:49.422Z,16.60
2023-03-15T17:49:18.250Z,19.83
2023-03-15T17:51:48.752Z,7.70
2023-03-15T17:54:24.881Z,4.73
2023-03-15T17:56:53.651Z,24.17
2023-03-15T17:59:21.680Z,9.03
2023-03-15T18:01:49.669Z,5.83
2023-03-15T18:04:19.672Z,6.77
2023-03-15T18:06:47.957Z,7.20
2023-03-15T18:09:18.376Z,6.37
2023-03-15T18:11:50.537Z,11.17
2023-03-15T18:14:29.936Z,7.20
2023-03-15T18:16:59.570Z,4.23
2023-03-15T18:19:27.784Z,3.83
2023-03-15T18:21:55.741Z,4.40
2023-03-15T18:24:26.596Z,2.93
2023-03-15T18:26:56.009Z,3.40
2023-03-15T18:29:24.139Z,3.73
2023-03-15T18:31:51.990Z,3.90
2023-03-15T18:34:22.062Z,3.40
2023-03-15T18:36:50.074Z,4.90
2023-03-15T18:39:18.031Z,4.50
2023-03-15T18:41:46.445Z,3.33
2023-03-15T18:44:15.883Z,4.17
2023-03-15T18:46:44.211Z,5.47
2023-03-15T18:49:12.164Z,4.87
2023-03-15T18:51:41.474Z,4.20
2023-03-15T18:54:09.556Z,4.97
2023-03-15T18:56:37.487Z,4.10
2023-03-15T18:59:05.646Z,4.80
2023-03-15T19:01:39.845Z,3.83
2023-03-15T19:04:11.332Z,6.60
2023-03-15T19:06:39.669Z,5.83
2023-03-15T19:09:07.657Z,7.53
2023-03-15T19:11:38.349Z,6.90
2023-03-15T19:14:06.351Z,7.60
2023-03-15T19:16:36.329Z,7.40
2023-03-15T19:19:04.640Z,11.50
2023-03-15T19:21:32.636Z,9.40
2023-03-15T19:24:06.627Z,10.70
2023-03-15T19:26:34.916Z,7.63
2023-03-15T19:29:05.761Z,7.63
2023-03-15T19:32:24.427Z,6.57
2023-03-15T19:35:34.412Z,9.17
2023-03-15T19:38:09.439Z,10.03
2023-03-15T19:44:06.604Z,7.30
2023-03-15T19:46:37.398Z,7.27
2023-03-15T19:49:05.773Z,6.40
2023-03-15T19:51:36.734Z,5.50
2023-03-15T19:54:05.928Z,7.30
2023-03-15T19:56:34.359Z,7.20
2023-03-15T19:59:05.424Z,7.37
2023-03-15T20:01:33.606Z,4.83
2023-03-15T20:04:01.952Z,6.20
2023-03-15T20:06:32.098Z,6.27
2023-03-15T20:09:01.945Z,6.27
2023-03-15T20:11:30.196Z,6.77
2023-03-15T20:13:58.347Z,7.50
2023-03-15T20:16:27.458Z,8.10
2023-03-15T20:18:56.073Z,7.70
2023-03-15T20:21:24.465Z,7.53
2023-03-15T20:23:52.346Z,8.63
2023-03-15T20:26:23.755Z,8.93
2023-03-15T20:28:51.788Z,8.70
2023-03-15T20:31:21.685Z,9.13
2023-03-15T20:33:51.203Z,7.60
2023-03-15T20:36:19.797Z,8.43
2023-03-15T20:38:47.793Z,6.60
2023-03-15T20:41:15.743Z,9.53
2023-03-15T20:43:45.130Z,8.00
2023-03-15T20:46:13.758Z,9.33
2023-03-15T20:48:41.795Z,7.77
2023-03-15T20:51:09.720Z,6.80
2023-03-15T20:53:38.379Z,8.50
2023-03-15T20:56:07.442Z,9.33
2023-03-15T20:58:35.694Z,6.47
2023-03-15T21:01:07.396Z,6.07
2023-03-15T21:03:38.382Z,8.77
2023-03-15T21:06:07.384Z,8.67
2023-03-15T21:08:35.686Z,9.27
2023-03-15T21:11:04.575Z,8.77
2023-03-15T21:13:32.971Z,10.07
2023-03-15T21:16:04.052Z,11.77
2023-03-15T21:18:36.078Z,11.40
2023-03-15T21:21:06.187Z,7.53
2023-03-15T21:23:35.216Z,6.63
2023-03-15T21:26:04.926Z,9.77
2023-03-15T21:28:33.135Z,8.43
2023-03-15T21:31:01.211Z,8.93
2023-03-15T21:33:31.053Z,10.17
2023-03-15T21:36:01.375Z,9.03
2023-03-15T21:38:31.435Z,6.77
2023-03-15T21:41:00.206Z,6.37
2023-03-15T21:43:29.849Z,7.63
2023-03-15T21:46:00.177Z,8.07
2023-03-15T21:48:28.358Z,7.97
2023-03-15T21:50:56.348Z,8.73
2023-03-15T21:53:28.246Z,8.83
2023-03-15T21:55:56.981Z,10.57
2023-03-15T21:58:25.542Z,12.37
2023-03-15T22:00:59.409Z,8.07
2023-03-15T22:03:27.940Z,8.73
2023-03-15T22:05:56.010Z,8.10
2023-03-15T22:08:27.985Z,9.23
2023-03-15T22:10:56.608Z,8.50
2023-03-15T22:13:24.918Z,9.93
2023-03-15T22:15:53.538Z,6.87
2023-03-15T22:18:21.496Z,6.87
2023-03-15T22:20:50.172Z,9.53
2023-03-15T22:23:18.806Z,10.37
2023-03-15T22:25:48.089Z,10.37
2023-03-15T22:28:16.364Z,9.97
2023-03-15T22:30:47.428Z,10.70
2023-03-15T22:33:19.175Z,10.33
2023-03-15T22:35:47.354Z,11.37
2023-03-15T22:38:15.728Z,9.40
2023-03-15T22:40:43.642Z,11.23
2023-03-15T22:43:12.905Z,10.43
2023-03-15T22:45:41.251Z,12.87
2023-03-15T22:48:09.094Z,10.73
2023-03-15T22:50:37.205Z,10.00
2023-03-15T22:53:04.988Z,10.37
2023-03-15T22:55:32.846Z,7.63
2023-03-15T22:58:00.715Z,7.43
2023-03-15T23:00:30.221Z,12.87
2023-03-15T23:02:58.166Z,10.97
2023-03-15T23:05:26.048Z,10.23
2023-03-15T23:07:53.856Z,9.73
2023-03-15T23:10:21.915Z,10.20
2023-03-15T23:12:49.781Z,13.27
2023-03-15T23:15:18.385Z,9.77
2023-03-15T23:17:47.711Z,11.13
2023-03-15T23:20:16.773Z,11.77
2023-03-15T23:22:45.100Z,9.17
2023-03-15T23:25:14.136Z,11.57
2023-03-15T23:27:42.957Z,12.03
2023-03-15T23:30:12.052Z,11.53
2023-03-15T23:32:40.397Z,13.50
2023-03-15T23:35:12.274Z,15.07
2023-03-15T23:37:40.433Z,13.13
2023-03-15T23:40:14.010Z,12.03
2023-03-15T23:42:42.596Z,9.90
2023-03-15T23:45:12.144Z,13.67
2023-03-15T23:47:40.962Z,14.10
2023-03-15T23:50:12.603Z,9.97
2023-03-15T23:52:41.307Z,13.00
2023-03-15T23:55:09.936Z,12.47
2023-03-15T23:57:38.069Z,12.93
